Check out our new BloomSky Weather System.

Active alerts

Houston, TX
  Details for Houston, TX Heat Advisory  +2 additional alerts
Galveston, TX
  Details for Galveston, TX Heat Advisory  +1 additional alert
Fort Bend, TX
  Details for Fort Bend, TX Heat Advisory


Thunder radar  blitzortung!


Rain radar more information rain snow radar


Visit our other weather sites:

Template documentation
and downloads

And another site



Weather Underground History page Text

Daily Summary for January 16, 2017 Units:  Metric    English   Both
« Previous Day
Next Day »
Daily Weekly Monthly Yearly Custom
  High: Low: Average:
Temperature: -17.8 °C 19.8 °C 22.2 °C
Dew Point: -17.8 °C 18.2 °C 19.7 °C
Humidity: Humidity % 62 % 86 %
Wind Speed: 0 km/h 0 km/h 7.6 km/h
Wind Gust: 0 km/h - -
Wind:- - SSE
Pressure: 0 hPa 1013.1 hPa -
Precipitation: 16.26 mm    
Historical Graphs
 
 
Tabular Data for January 16, 2017
Time Temperature Dew Point Pressure Wind Wind Speed Wind Gust Humidity Rainfall Rate (Hourly)
-17.8 °C -17.8 °C 0 hPa Calm     Humidity % 0 mm
00:03 20.1 °C 18.9 °C 1013.8 hPa ESE 9.7 km/h 19.3 km/h 93 % 0 mm
00:08 20.1 °C 18.9 °C 1013.8 hPa SE 14.5 km/h 19.3 km/h 93 % 0 mm
00:13 20.1 °C 18.9 °C 1013.4 hPa SE 14.5 km/h 22.5 km/h 93 % 0 mm
00:18 20.2 °C 19 °C 1013.4 hPa SE 6.4 km/h 22.5 km/h 93 % 0 mm
00:23 20.2 °C 19 °C 1013.4 hPa SE 12.9 km/h 22.5 km/h 93 % 0 mm
00:28 20.2 °C 19 °C 1013.1 hPa East 8 km/h 20.9 km/h 93 % 0 mm
00:33 20.2 °C 19 °C 1013.1 hPa South 8 km/h 19.3 km/h 93 % 0 mm
00:38 20.2 °C 19 °C 1013.1 hPa SE 8 km/h 19.3 km/h 93 % 0 mm
00:43 20.2 °C 19 °C 1013.1 hPa ESE 4.8 km/h 22.5 km/h 93 % 0 mm
00:48 20.2 °C 19 °C 1013.4 hPa East 16.1 km/h 22.5 km/h 93 % 0 mm
00:53 20.2 °C 19 °C 1013.4 hPa South 9.7 km/h 22.5 km/h 93 % 0 mm
00:58 20.3 °C 19.1 °C 1013.8 hPa ESE 4.8 km/h 17.7 km/h 93 % 0 mm
01:03 20.3 °C 19.1 °C 1013.8 hPa East 6.4 km/h 17.7 km/h 93 % 0 mm
01:08 20.3 °C 19.1 °C 1013.8 hPa SE 6.4 km/h 16.1 km/h 93 % 0 mm
01:13 20.3 °C 19.1 °C 1013.8 hPa SE 11.3 km/h 14.5 km/h 93 % 0 mm
01:18 20.3 °C 19.1 °C 1013.8 hPa SE 12.9 km/h 16.1 km/h 93 % 0 mm
01:23 20.3 °C 19.1 °C 1013.8 hPa ESE 6.4 km/h 17.7 km/h 93 % 0 mm
01:28 20.3 °C 19.1 °C 1013.8 hPa SE 8 km/h 17.7 km/h 93 % 0 mm
01:34 20.3 °C 19.1 °C 1013.8 hPa SE 8 km/h 17.7 km/h 93 % 0 mm
01:39 20.4 °C 19.2 °C 1013.8 hPa ESE 9.7 km/h 17.7 km/h 93 % 0 mm
01:44 20.4 °C 19.2 °C 1013.8 hPa ESE 8 km/h 14.5 km/h 93 % 0 mm
01:49 20.4 °C 19.2 °C 1013.8 hPa East 6.4 km/h 12.9 km/h 93 % 0 mm
01:54 20.4 °C 19.2 °C 1013.8 hPa SE 3.2 km/h 12.9 km/h 93 % 0 mm
01:59 20.4 °C 19.2 °C 1013.8 hPa ESE 4.8 km/h 11.3 km/h 93 % 0 mm
02:04 20.4 °C 19.2 °C 1013.8 hPa Calm   9.7 km/h 93 % 0 mm
02:09 20.4 °C 19.2 °C 1013.8 hPa SE 3.2 km/h 9.7 km/h 93 % 0 mm
02:14 20.3 °C 19.1 °C 1013.8 hPa ESE 6.4 km/h 11.3 km/h 93 % 0 mm
02:19 20.4 °C 19.2 °C 1013.8 hPa SE 6.4 km/h 11.3 km/h 93 % 0 mm
02:24 20.4 °C 19.2 °C 1013.8 hPa ENE 8 km/h 14.5 km/h 93 % 0 mm
02:29 20.4 °C 19.2 °C 1013.8 hPa SE 3.2 km/h 14.5 km/h 93 % 0 mm
02:34 20.4 °C 19.2 °C 1013.8 hPa East 4.8 km/h 14.5 km/h 93 % 0 mm
02:39 20.4 °C 19.2 °C 1013.8 hPa East 6.4 km/h 14.5 km/h 93 % 0 mm
02:44 20.3 °C 19.1 °C 1013.8 hPa ESE 6.4 km/h 14.5 km/h 93 % 0 mm
02:49 20.3 °C 19.1 °C 1013.8 hPa ESE 4.8 km/h 14.5 km/h 93 % 0 mm
02:54 20.3 °C 19.1 °C 1014.1 hPa SSW 3.2 km/h 11.3 km/h 93 % 0 mm
02:59 20.3 °C 19.1 °C 1014.1 hPa South 3.2 km/h 9.7 km/h 93 % 0 mm
03:04 20.3 °C 19.1 °C 1014.1 hPa ESE 4.8 km/h 8 km/h 93 % 0 mm
03:09 20.2 °C 19 °C 1014.1 hPa SE 3.2 km/h 8 km/h 93 % 0 mm
03:14 20.2 °C 19.2 °C 1014.1 hPa ESE 4.8 km/h 6.4 km/h 94 % 0 mm
03:19 20.2 °C 19.2 °C 1014.1 hPa East 6.4 km/h 9.7 km/h 94 % 0 mm
03:24 20.2 °C 19.2 °C 1014.1 hPa SE 1.6 km/h 9.7 km/h 94 % 0 mm
03:29 20.2 °C 19.2 °C 1014.1 hPa ESE 1.6 km/h 9.7 km/h 94 % 0 mm
03:34 20.2 °C 19.2 °C 1014.1 hPa ESE 1.6 km/h 8 km/h 94 % 0 mm
03:39 20.2 °C 19.2 °C 1014.1 hPa ESE 1.6 km/h 8 km/h 94 % 0 mm
03:44 20.2 °C 19.2 °C 1014.1 hPa SE 1.6 km/h 6.4 km/h 94 % 0 mm
03:49 20.1 °C 19.1 °C 1014.1 hPa ESE 1.6 km/h 6.4 km/h 94 % 0 mm
03:54 20.1 °C 19.1 °C 1013.8 hPa East 4.8 km/h 6.4 km/h 94 % 0 mm
03:59 20.1 °C 19.1 °C 1014.1 hPa South 4.8 km/h 6.4 km/h 94 % 0 mm
04:04 20.1 °C 19.1 °C 1014.1 hPa East 6.4 km/h 8 km/h 94 % 0 mm
04:09 20.1 °C 19.1 °C 1014.1 hPa ESE 4.8 km/h 9.7 km/h 94 % 0 mm
04:14 20.1 °C 19.1 °C 1014.1 hPa ESE 3.2 km/h 9.7 km/h 94 % 0 mm
04:19 20.1 °C 19.1 °C 1013.8 hPa East 4.8 km/h 9.7 km/h 94 % 0 mm
04:24 20.1 °C 19.3 °C 1013.8 hPa ESE 9.7 km/h 11.3 km/h 95 % 0 mm
04:29 20.1 °C 19.3 °C 1013.8 hPa ESE 4.8 km/h 17.7 km/h 95 % 0 mm
04:34 20.1 °C 19.3 °C 1014.1 hPa SE 4.8 km/h 17.7 km/h 95 % 0 mm
04:39 20.1 °C 19.3 °C 1014.1 hPa South 8 km/h 17.7 km/h 95 % 0 mm
04:44 20.1 °C 19.3 °C 1014.1 hPa ESE 4.8 km/h 24.1 km/h 95 % 0 mm
04:49 20.1 °C 19.3 °C 1013.8 hPa SSE 6.4 km/h 24.1 km/h 95 % 0 mm
04:54 20.1 °C 19.3 °C 1013.8 hPa SSE 4.8 km/h 24.1 km/h 95 % 0.25 mm
04:59 20.1 °C 19.3 °C 1014.1 hPa SE 4.8 km/h 12.9 km/h 95 % 0.51 mm
05:04 19.9 °C 19.1 °C 1013.8 hPa East 4.8 km/h 12.9 km/h 95 % 0.51 mm
05:09 19.9 °C 19.2 °C 1013.8 hPa SE 3.2 km/h 12.9 km/h 96 % 0.51 mm
05:14 19.8 °C 19.1 °C 1013.8 hPa ENE 3.2 km/h 11.3 km/h 96 % 0.76 mm
05:19 19.8 °C 19.1 °C 1013.4 hPa ESE 9.7 km/h 9.7 km/h 96 % 0.76 mm
05:24 19.8 °C 19.1 °C 1013.4 hPa ESE 3.2 km/h 14.5 km/h 96 % 0.76 mm
05:29 19.8 °C 19.1 °C 1013.8 hPa East 6.4 km/h 14.5 km/h 96 % 0.76 mm
05:34 19.8 °C 19.1 °C 1013.8 hPa SSE 3.2 km/h 14.5 km/h 96 % 0.76 mm
05:39 19.8 °C 19.3 °C 1013.4 hPa SSE 6.4 km/h 14.5 km/h 97 % 0.76 mm
05:44 19.8 °C 19.3 °C 1013.8 hPa SE 4.8 km/h 11.3 km/h 97 % 0.76 mm
05:49 19.8 °C 19.3 °C 1013.4 hPa East 9.7 km/h 16.1 km/h 97 % 0.76 mm
05:54 19.9 °C 19.4 °C 1013.8 hPa ESE 3.2 km/h 16.1 km/h 97 % 0.76 mm
05:59 19.9 °C 19.4 °C 1013.8 hPa SE 3.2 km/h 16.1 km/h 97 % 0.51 mm
06:04 19.9 °C 19.4 °C 1013.8 hPa SSE 6.4 km/h 14.5 km/h 97 % 0.51 mm
06:09 19.9 °C 19.4 °C 1013.8 hPa SE 9.7 km/h 14.5 km/h 97 % 0.25 mm
06:14 19.9 °C 19.4 °C 1013.8 hPa SE 8 km/h 14.5 km/h 97 % 0.25 mm
06:19 19.9 °C 19.4 °C 1013.8 hPa SE 4.8 km/h 14.5 km/h 97 % 0.51 mm
06:24 19.9 °C 19.4 °C 1013.8 hPa SSE 3.2 km/h 12.9 km/h 97 % 0.76 mm
06:29 19.9 °C 19.4 °C 1013.8 hPa SE 3.2 km/h 12.9 km/h 97 % 1.02 mm
06:35 20 °C 19.5 °C 1014.1 hPa SSE 1.6 km/h 12.9 km/h 97 % 1.02 mm
06:40 20 °C 19.7 °C 1014.1 hPa SE 3.2 km/h 9.7 km/h 98 % 1.27 mm
06:45 20.1 °C 19.8 °C 1014.1 hPa East 6.4 km/h 9.7 km/h 98 % 1.27 mm
06:50 20.1 °C 19.8 °C 1014.1 hPa SE 4.8 km/h 11.3 km/h 98 % 1.27 mm
06:55 20.2 °C 19.9 °C 1014.1 hPa South 1.6 km/h 11.3 km/h 98 % 1.52 mm
07:00 20.2 °C 19.9 °C 1014.4 hPa SE 3.2 km/h 11.3 km/h 98 % 2.54 mm
07:05 20.3 °C 20 °C 1014.4 hPa SE 3.2 km/h 11.3 km/h 98 % 2.54 mm
07:10 20.3 °C 20 °C 1014.4 hPa Calm   6.4 km/h 98 % 2.54 mm
07:15 20.3 °C 20 °C 1014.4 hPa SSW 4.8 km/h 6.4 km/h 98 % 2.54 mm
07:20 20.3 °C 20 °C 1014.4 hPa SE 8 km/h 8 km/h 98 % 2.54 mm
07:25 20.3 °C 20 °C 1014.4 hPa South 6.4 km/h 9.7 km/h 98 % 2.03 mm
07:30 20.4 °C 20.1 °C 1014.4 hPa SE 4.8 km/h 11.3 km/h 98 % 2.29 mm
07:35 20.4 °C 20.1 °C 1014.4 hPa SE 4.8 km/h 11.3 km/h 98 % 3.81 mm
07:40 20.4 °C 20.1 °C 1014.4 hPa East 8 km/h 12.9 km/h 98 % 6.1 mm
07:45 20.3 °C 20 °C 1014.4 hPa Calm   14.5 km/h 98 % 7.11 mm
07:50 20.3 °C 20 °C 1014.4 hPa SSW 1.6 km/h 14.5 km/h 98 % 8.38 mm
07:55 20.3 °C 20 °C 1014.8 hPa SW 8 km/h 14.5 km/h 98 % 11.68 mm
08:00 20.1 °C 19.6 °C 1014.8 hPa Calm   19.3 km/h 97 % 11.43 mm
08:05 20 °C 19.5 °C 1014.4 hPa SSW 4.8 km/h 19.3 km/h 97 % 11.94 mm
08:10 20.1 °C 19.8 °C 1014.4 hPa SSW 4.8 km/h 19.3 km/h 98 % 11.94 mm
08:15 20.3 °C 20 °C 1014.4 hPa South 4.8 km/h 14.5 km/h 98 % 11.94 mm
08:20 20.4 °C 20.1 °C 1014.4 hPa Calm   14.5 km/h 98 % 11.94 mm
08:25 20.5 °C 20.2 °C 1014.8 hPa SSE 4.8 km/h 9.7 km/h 98 % 11.94 mm
08:30 20.6 °C 20.3 °C 1015.1 hPa South 3.2 km/h 8 km/h 98 % 11.68 mm
08:35 20.6 °C 20.3 °C 1014.8 hPa SSW 8 km/h 9.7 km/h 98 % 9.91 mm
08:40 20.7 °C 20.4 °C 1014.8 hPa South 8 km/h 12.9 km/h 98 % 7.37 mm
08:45 20.8 °C 20.5 °C 1014.8 hPa SSE 9.7 km/h 12.9 km/h 98 % 6.35 mm
08:50 20.8 °C 20.5 °C 1014.8 hPa SE 9.7 km/h 22.5 km/h 98 % 4.83 mm
08:55 20.9 °C 20.4 °C 1014.8 hPa SE 12.9 km/h 22.5 km/h 97 % 0.76 mm
09:00 21.1 °C 20.6 °C 1015.1 hPa SE 6.4 km/h 22.5 km/h 97 % 0.51 mm
09:05 21.1 °C 20.6 °C 1015.1 hPa SSE 9.7 km/h 17.7 km/h 97 % 0.51 mm
09:07 21.1 °C 20.6 °C 1015.1 hPa SSE 4.8 km/h 17.7 km/h 97 % 0.51 mm
09:12 21.2 °C 20.7 °C 1015.1 hPa SSW 4.8 km/h 17.7 km/h 97 % 0.51 mm
09:17 21.2 °C 20.7 °C 1015.1 hPa SSW 9.7 km/h 16.1 km/h 97 % 0.51 mm
09:22 21.3 °C 20.8 °C 1015.5 hPa SSE 11.3 km/h 16.1 km/h 97 % 0.51 mm
09:27 21.4 °C 20.9 °C 1015.5 hPa South 6.4 km/h 16.1 km/h 97 % 0.51 mm
09:32 21.5 °C 20.8 °C 1015.5 hPa SSE 6.4 km/h 16.1 km/h 96 % 0.51 mm
09:37 21.6 °C 20.9 °C 1015.5 hPa SSW 9.7 km/h 22.5 km/h 96 % 0.51 mm
09:42 21.8 °C 21 °C 1015.5 hPa SE 14.5 km/h 22.5 km/h 95 % 0.51 mm
09:47 21.9 °C 20.9 °C 1015.5 hPa SSE 6.4 km/h 22.5 km/h 94 % 0.51 mm
09:52 22.1 °C 21.1 °C 1015.5 hPa South 4.8 km/h 22.5 km/h 94 % 0.51 mm
10:01 22.8 °C 21.8 °C 1015.5 hPa SSW 12.9 km/h 19.3 km/h 94 % 0.25 mm
10:06 23.1 °C 21.4 °C 1015.5 hPa South 8 km/h 24.1 km/h 90 % 0.25 mm
10:12 23.4 °C 21.5 °C 1015.5 hPa SSE 3.2 km/h 25.7 km/h 89 % 0 mm
10:17 23.5 °C 21 °C 1015.8 hPa South 16.1 km/h 25.7 km/h 86 % 0 mm
10:25 23.6 °C 20.9 °C 1015.8 hPa South 11.3 km/h 25.7 km/h 85 % 0 mm
10:31 23.7 °C 21 °C 1015.8 hPa South 4.8 km/h 22.5 km/h 85 % 0 mm
10:51 24.3 °C 20 °C 1015.5 hPa ESE 14.5 km/h 29 km/h 77 % 0 mm
10:54 24.4 °C 20.1 °C 1015.8 hPa SSE 12.9 km/h 29 km/h 77 % 0 mm
10:56 24.5 °C 20 °C 1015.8 hPa SSE 12.9 km/h 29 km/h 76 % 0 mm
10:59 24.4 °C 19.9 °C 1015.8 hPa SSE 19.3 km/h 29 km/h 76 % 0 mm
11:04 24.5 °C 19.8 °C 1015.5 hPa South 14.5 km/h 29 km/h 75 % 0 mm
11:18 25.1 °C 20.4 °C 1015.5 hPa SSE 9.7 km/h 27.4 km/h 75 % 0 mm
11:23 25.3 °C 19.9 °C 1015.5 hPa South 20.9 km/h 24.1 km/h 72 % 0 mm
11:26 25.4 °C 19.8 °C 1015.5 hPa SSE 14.5 km/h 24.1 km/h 71 % 0 mm
11:30 25.5 °C 19.6 °C 1015.5 hPa SSE 14.5 km/h 24.1 km/h 70 % 0 mm
11:32 25.6 °C 19.9 °C 1015.5 hPa South 11.3 km/h 27.4 km/h 71 % 0 mm
11:37 25.8 °C 19.7 °C 1015.5 hPa South 17.7 km/h 27.4 km/h 69 % 0 mm
11:42 25.8 °C 19.7 °C 1015.1 hPa South 12.9 km/h 29 km/h 69 % 0 mm
11:56 26.2 °C 20.1 °C 1014.8 hPa SSW 16.1 km/h 27.4 km/h 69 % 0 mm
11:59 26.2 °C 19.6 °C 1014.8 hPa SSE 12.9 km/h 27.4 km/h 67 % 0 mm
12:18 26.2 °C 19.8 °C 1014.4 hPa SSW 6.4 km/h 30.6 km/h 68 % 0 mm
12:20 26.2 °C 19.8 °C 1014.4 hPa SSE 11.3 km/h 30.6 km/h 68 % 0 mm
12:36 26.3 °C 19.7 °C 1014.1 hPa SSE 14.5 km/h 29 km/h 67 % 0 mm
12:43 26.1 °C 19 °C 1013.8 hPa SSW 11.3 km/h 29 km/h 65 % 0 mm
12:46 26.1 °C 19.5 °C 1014.1 hPa South 14.5 km/h 27.4 km/h 67 % 0 mm
12:47 26.1 °C 19.5 °C 1014.1 hPa SE 6.4 km/h 27.4 km/h 67 % 0 mm
12:57 25.9 °C 19.3 °C 1013.8 hPa SE 17.7 km/h 20.9 km/h 67 % 0 mm
12:58 25.9 °C 19.3 °C 1013.8 hPa SE 9.7 km/h 20.9 km/h 67 % 0 mm
13:02 25.9 °C 19.1 °C 1013.8 hPa SSE 8 km/h 22.5 km/h 66 % 0 mm
13:13 26.2 °C 19.1 °C 1013.8 hPa SW 9.7 km/h 27.4 km/h 65 % 0 mm
13:17 26.2 °C 19.3 °C 1013.8 hPa SSE 8 km/h 27.4 km/h 66 % 0 mm
14:03 26.5 °C 18.6 °C 1013.1 hPa SSE 16.1 km/h 29 km/h 62 % 0 mm
14:05 26.4 °C 18.5 °C 1013.1 hPa South 14.5 km/h 29 km/h 62 % 0 mm
14:13 26.4 °C 18.8 °C 1013.1 hPa South 8 km/h 24.1 km/h 63 % 0 mm
14:26 26.4 °C 18.5 °C 1013.1 hPa SSE 17.7 km/h 27.4 km/h 62 % 0 mm
14:33 26.1 °C 18.2 °C 1013.4 hPa SE 16.1 km/h 27.4 km/h 62 % 0 mm
14:37 26 °C 18.4 °C 1013.4 hPa South 16.1 km/h 25.7 km/h 63 % 0 mm
14:43 25.9 °C 18.3 °C 1013.1 hPa SSE 12.9 km/h 25.7 km/h 63 % 0 mm
14:46 25.9 °C 18.8 °C 1013.1 hPa SSE 11.3 km/h 25.7 km/h 65 % 0 mm
14:56 25.7 °C 19.3 °C 1013.1 hPa ESE 16.1 km/h 24.1 km/h 68 % 0 mm
15:03 25.4 °C 19.3 °C 1013.4 hPa SSW 17.7 km/h 25.7 km/h 69 % 0 mm
15:10 25.3 °C 19.4 °C 1013.4 hPa SE 11.3 km/h 25.7 km/h 70 % 0 mm
15:14 25.3 °C 19.7 °C 1013.4 hPa SSE 11.3 km/h 25.7 km/h 71 % 0 mm
15:20 25.3 °C 19.7 °C 1013.4 hPa SE 16.1 km/h 24.1 km/h 71 % 0 mm
15:22 25.3 °C 19.7 °C 1013.1 hPa SW 11.3 km/h 25.7 km/h 71 % 0 mm
15:28 25.5 °C 19.9 °C 1013.1 hPa SSE 4.8 km/h 25.7 km/h 71 % 0 mm
15:29 25.5 °C 19.9 °C 1013.4 hPa South 8 km/h 25.7 km/h 71 % 0 mm
15:30 25.6 °C 19.9 °C 1013.1 hPa SSE 9.7 km/h 25.7 km/h 71 % 0 mm
15:31 25.6 °C 19.7 °C 1013.4 hPa SSE 14.5 km/h 25.7 km/h 70 % 0 mm
15:37 25.6 °C 19.7 °C 1013.1 hPa South 11.3 km/h 25.7 km/h 70 % 0 mm
15:39 25.6 °C 19.7 °C 1013.4 hPa East 12.9 km/h 25.7 km/h 70 % 0 mm
15:42 25.5 °C 19.6 °C 1013.4 hPa SE 8 km/h 25.7 km/h 70 % 0 mm
15:47 25.4 °C 19.8 °C 1013.4 hPa SSE 11.3 km/h 25.7 km/h 71 % 0 mm
15:52 25.2 °C 19.6 °C 1013.4 hPa SE 12.9 km/h 24.1 km/h 71 % 0 mm
15:57 25.2 °C 19.6 °C 1013.4 hPa South 14.5 km/h 24.1 km/h 71 % 0 mm
16:02 25.3 °C 19.7 °C 1013.4 hPa SSE 9.7 km/h 24.1 km/h 71 % 0 mm
16:07 25.3 °C 19.7 °C 1013.4 hPa SE 19.3 km/h 24.1 km/h 71 % 0 mm
16:12 25.2 °C 19.6 °C 1013.8 hPa SSE 11.3 km/h 22.5 km/h 71 % 0 mm
16:17 25.2 °C 19.6 °C 1013.8 hPa South 8 km/h 24.1 km/h 71 % 0 mm
16:22 25.2 °C 19.8 °C 1013.8 hPa SSE 9.7 km/h 24.1 km/h 72 % 0 mm
16:27 25.2 °C 19.6 °C 1013.8 hPa SSE 6.4 km/h 24.1 km/h 71 % 0 mm
16:32 25.1 °C 19.5 °C 1013.8 hPa SE 8 km/h 24.1 km/h 71 % 0 mm
16:37 25.1 °C 19.5 °C 1013.8 hPa SW 12.9 km/h 24.1 km/h 71 % 0 mm
16:42 25 °C 19.4 °C 1013.8 hPa SSE 14.5 km/h 19.3 km/h 71 % 0 mm
16:47 24.9 °C 19.3 °C 1013.8 hPa South 9.7 km/h 19.3 km/h 71 % 0 mm
16:52 24.9 °C 19.3 °C 1013.8 hPa SE 6.4 km/h 19.3 km/h 71 % 0 mm
16:57 24.8 °C 19.2 °C 1014.1 hPa ESE 6.4 km/h 19.3 km/h 71 % 0 mm
17:02 24.8 °C 19.2 °C 1013.8 hPa South 6.4 km/h 17.7 km/h 71 % 0 mm
17:07 24.7 °C 19.1 °C 1013.8 hPa SSE 16.1 km/h 17.7 km/h 71 % 0 mm
17:12 24.7 °C 19.1 °C 1014.1 hPa SE 8 km/h 19.3 km/h 71 % 0 mm
17:17 24.7 °C 19.1 °C 1014.1 hPa SE 11.3 km/h 19.3 km/h 71 % 0 mm
17:22 24.7 °C 19.3 °C 1014.1 hPa SSW 8 km/h 19.3 km/h 72 % 0 mm
17:27 24.6 °C 19.2 °C 1014.1 hPa ESE 14.5 km/h 20.9 km/h 72 % 0 mm
17:32 24.5 °C 19.1 °C 1014.4 hPa SE 8 km/h 20.9 km/h 72 % 0 mm
17:37 24.4 °C 19.2 °C 1014.4 hPa SSW 3.2 km/h 20.9 km/h 73 % 0 mm
17:42 24.3 °C 19.4 °C 1014.4 hPa South 14.5 km/h 19.3 km/h 74 % 0 mm
17:47 24.2 °C 19.3 °C 1014.4 hPa ESE 6.4 km/h 19.3 km/h 74 % 0 mm
17:52 24.1 °C 19.4 °C 1014.4 hPa South 6.4 km/h 17.7 km/h 75 % 0 mm
17:57 23.9 °C 19.2 °C 1014.4 hPa South 3.2 km/h 14.5 km/h 75 % 0 mm
18:02 23.8 °C 19.3 °C 1014.4 hPa SSE 3.2 km/h 12.9 km/h 76 % 0 mm
18:07 23.8 °C 19.5 °C 1014.4 hPa SE 6.4 km/h 11.3 km/h 77 % 0 mm
18:12 23.8 °C 19.7 °C 1014.4 hPa SE 8 km/h 14.5 km/h 78 % 0 mm
18:17 23.7 °C 19.8 °C 1014.8 hPa SE 8 km/h 14.5 km/h 79 % 0 mm
18:22 23.7 °C 19.8 °C 1014.8 hPa South 4.8 km/h 14.5 km/h 79 % 0 mm
18:27 23.6 °C 19.9 °C 1014.8 hPa SE 4.8 km/h 14.5 km/h 80 % 0 mm
18:32 23.6 °C 19.9 °C 1014.8 hPa SSW 6.4 km/h 12.9 km/h 80 % 0 mm
18:37 23.6 °C 20.1 °C 1014.4 hPa SE 9.7 km/h 12.9 km/h 81 % 0 mm
18:42 23.4 °C 20 °C 1014.8 hPa South 11.3 km/h 12.9 km/h 81 % 0 mm
18:47 23.4 °C 20 °C 1014.8 hPa ESE 9.7 km/h 19.3 km/h 81 % 0 mm
18:52 23.3 °C 20.1 °C 1014.8 hPa ESE 6.4 km/h 19.3 km/h 82 % 0 mm
18:57 23.3 °C 20.1 °C 1015.1 hPa SE 8 km/h 19.3 km/h 82 % 0 mm
19:02 23.2 °C 20.2 °C 1015.1 hPa SE 3.2 km/h 12.9 km/h 83 % 0 mm
19:07 23.2 °C 20.2 °C 1015.1 hPa South 6.4 km/h 12.9 km/h 83 % 0 mm
19:12 23.1 °C 20.1 °C 1015.1 hPa SSE 8 km/h 14.5 km/h 83 % 0 mm
19:17 23.1 °C 20.2 °C 1015.1 hPa SSE 1.6 km/h 14.5 km/h 84 % 0 mm
19:22 23.1 °C 20.2 °C 1015.1 hPa SSE 4.8 km/h 14.5 km/h 84 % 0 mm
19:28 23 °C 20.3 °C 1015.1 hPa SSE 12.9 km/h 12.9 km/h 85 % 0 mm
19:33 22.9 °C 20.2 °C 1015.1 hPa South 4.8 km/h 16.1 km/h 85 % 0 mm
19:38 22.9 °C 20.4 °C 1015.1 hPa SSE 3.2 km/h 16.1 km/h 86 % 0 mm
19:43 22.8 °C 20.3 °C 1015.1 hPa SW 1.6 km/h 16.1 km/h 86 % 0 mm
19:48 22.7 °C 20.2 °C 1015.1 hPa SE 4.8 km/h 12.9 km/h 86 % 0 mm
19:53 22.7 °C 20.4 °C 1015.1 hPa SE 3.2 km/h 11.3 km/h 87 % 0 mm
19:58 22.7 °C 20.4 °C 1015.1 hPa SE 4.8 km/h 11.3 km/h 87 % 0 mm
20:03 22.7 °C 20.4 °C 1015.5 hPa South 3.2 km/h 11.3 km/h 87 % 0 mm
20:08 22.7 °C 20.4 °C 1015.5 hPa SSE 8 km/h 11.3 km/h 87 % 0 mm
20:13 22.7 °C 20.6 °C 1015.5 hPa SSE 8 km/h 11.3 km/h 88 % 0 mm
20:18 22.7 °C 20.6 °C 1015.5 hPa SE 9.7 km/h 11.3 km/h 88 % 0 mm
20:23 22.6 °C 20.5 °C 1015.5 hPa SE 6.4 km/h 12.9 km/h 88 % 0 mm
20:28 22.6 °C 20.5 °C 1015.5 hPa SE 6.4 km/h 17.7 km/h 88 % 0 mm
20:33 22.6 °C 20.7 °C 1015.5 hPa SSE 9.7 km/h 17.7 km/h 89 % 0 mm
20:38 22.6 °C 20.7 °C 1015.5 hPa South 6.4 km/h 17.7 km/h 89 % 0 mm
20:43 22.6 °C 20.7 °C 1015.5 hPa SE 3.2 km/h 14.5 km/h 89 % 0 mm
20:48 22.5 °C 20.6 °C 1015.5 hPa ESE 8 km/h 14.5 km/h 89 % 0 mm
20:53 22.5 °C 20.6 °C 1015.5 hPa ESE 6.4 km/h 12.9 km/h 89 % 0 mm
20:58 22.4 °C 20.7 °C 1015.5 hPa SSE 3.2 km/h 9.7 km/h 90 % 0 mm
21:03 22.4 °C 20.7 °C 1015.5 hPa SE 3.2 km/h 9.7 km/h 90 % 0 mm
21:08 22.4 °C 20.7 °C 1015.5 hPa SSE 11.3 km/h 11.3 km/h 90 % 0 mm
21:13 22.4 °C 20.7 °C 1015.5 hPa South 4.8 km/h 16.1 km/h 90 % 0 mm
21:18 22.4 °C 20.7 °C 1015.5 hPa SSE 3.2 km/h 16.1 km/h 90 % 0 mm
21:23 22.4 °C 20.9 °C 1015.5 hPa SSE 4.8 km/h 16.1 km/h 91 % 0 mm
21:28 22.4 °C 20.9 °C 1015.5 hPa SSE 6.4 km/h 14.5 km/h 91 % 0 mm
21:33 22.4 °C 20.9 °C 1015.5 hPa SE 9.7 km/h 14.5 km/h 91 % 0 mm
21:38 22.4 °C 20.9 °C 1015.5 hPa SE 11.3 km/h 14.5 km/h 91 % 0 mm
21:43 22.4 °C 21 °C 1015.5 hPa SSW 4.8 km/h 14.5 km/h 92 % 0 mm
21:48 22.4 °C 21 °C 1015.5 hPa SSE 6.4 km/h 16.1 km/h 92 % 0 mm
21:53 22.4 °C 21 °C 1015.5 hPa ESE 11.3 km/h 16.1 km/h 92 % 0 mm
21:58 22.4 °C 21 °C 1015.5 hPa SE 6.4 km/h 16.1 km/h 92 % 0 mm
22:03 22.4 °C 21 °C 1015.5 hPa SSE 6.4 km/h 14.5 km/h 92 % 0 mm
22:08 22.4 °C 21 °C 1015.5 hPa ESE 6.4 km/h 14.5 km/h 92 % 0 mm
22:13 22.4 °C 21 °C 1015.5 hPa SSE 1.6 km/h 12.9 km/h 92 % 0 mm
22:18 22.4 °C 21.2 °C 1015.5 hPa South 6.4 km/h 11.3 km/h 93 % 0 mm
22:23 22.3 °C 21.1 °C 1015.8 hPa SE 3.2 km/h 12.9 km/h 93 % 0 mm
22:28 22.3 °C 21.1 °C 1015.8 hPa SSE 9.7 km/h 16.1 km/h 93 % 0 mm
22:33 22.3 °C 21.1 °C 1015.8 hPa SE 8 km/h 16.1 km/h 93 % 0 mm
22:38 22.3 °C 21.1 °C 1015.8 hPa SE 8 km/h 16.1 km/h 93 % 0 mm
22:43 22.3 °C 21.1 °C 1015.8 hPa SSE 6.4 km/h 12.9 km/h 93 % 0 mm
22:48 22.3 °C 21.1 °C 1015.8 hPa South 6.4 km/h 16.1 km/h 93 % 0 mm
22:53 22.3 °C 21.1 °C 1015.8 hPa SSE 4.8 km/h 16.1 km/h 93 % 0 mm
22:58 22.3 °C 21.1 °C 1016.1 hPa SE 8 km/h 16.1 km/h 93 % 0 mm
23:03 22.3 °C 21.1 °C 1016.1 hPa SE 6.4 km/h 14.5 km/h 93 % 0 mm
23:08 22.3 °C 21.1 °C 1016.1 hPa SSE 8 km/h 14.5 km/h 93 % 0 mm
23:13 22.3 °C 21.1 °C 1016.1 hPa South 8 km/h 14.5 km/h 93 % 0 mm
23:18 22.3 °C 21.1 °C 1016.1 hPa SSW 4.8 km/h 14.5 km/h 93 % 0 mm
23:23 22.3 °C 21.1 °C 1016.1 hPa South 3.2 km/h 11.3 km/h 93 % 0 mm
23:28 22.3 °C 21.1 °C 1016.1 hPa SSE 4.8 km/h 11.3 km/h 93 % 0 mm
23:33 22.3 °C 21.1 °C 1016.1 hPa South 6.4 km/h 11.3 km/h 93 % 0 mm
23:38 22.3 °C 21.1 °C 1015.8 hPa East 4.8 km/h 11.3 km/h 93 % 0 mm
23:43 22.3 °C 21.1 °C 1015.8 hPa SSE 3.2 km/h 11.3 km/h 93 % 0 mm
23:48 22.3 °C 21.1 °C 1015.8 hPa SSE 6.4 km/h 9.7 km/h 93 % 0 mm
23:53 22.3 °C 21.1 °C 1015.8 hPa SSW 6.4 km/h 11.3 km/h 93 % 0 mm
23:59 22.3 °C 21.1 °C 1015.8 hPa South 3.2 km/h 11.3 km/h 93 % 0 mm
Spring, Texas: Villages of Bridgestone
Compliments of Weather Underground - 2.75 mb

Script developed by  Jim McMurry - jmcmurry@mwt.net Adapted for the template by  Wim van der Kuil - Leuven-Template.eu

You find our weather info also at:

UK Metoffice

WeatherCloud

Weather Underground

Mid-South Weather Network

AWEKAS

Citizen Weather Observer Program (CWOP)

HAMweather, WeatherForYou, PWS Weather

Equipment we use:

Weather-station
Davis Vantage Vue

Weather-program
Meteohub

Weather-server
Debian 7.9 x86 (Guest)

Provider
DreamHost

Davis Vantage Vue

Meteohub

Debian 7.9 x86 (Guest)

DreamHost